Raco, Michigan
Current Conditions -  °F | °C
As of 7:00 PM on Saturday 25 Oct 2014 (Local Time) from CYAM Reporting Station
Broken Clouds Broken Clouds  
Wind Chill: 52°   Ceiling: 6800
Heat Index: 52°   Visibility: 15mi
Dew Point: 39°   Wind: 29mph
Humidity: 62%   Direction: 280°W
Pressure: 29.67"   Gusts: 39mph
Location:  46.4104°N, 84.5584°W
Report Text: CYAM 252300Z 28025G34KT 15SM FEW021 BKN068 11/04 A2967 RMK SC1AC6 SLP050
Loading
Personal Weather Stations






























Interactive Weather Map
Tropical Storm Tracking
New forecast layout! Learn more

10-Day Weather Forecast

Advertisements
Track Severe Weather on mobile